Terminal Aerodrome Forecast
Issued by NWS

Home | Current Version | Previous Version | Text Only | Print | Product List | Glossary On
Versions: 1 2 3 4 5 6 7 8 9 10 11 12 13 14 15 16 17 18 19 20 21
000
FTUS43 KLSX 161700
TAFSUS
TAF
KSUS 161730Z 1618/1718 03005KT P6SM BKN025
      TEMPO 1618/1619 BKN018
     FM162000 03005KT P6SM SCT025
     FM170000 00000KT P6SM SCT250
     FM171300 14005KT P6SM BKN050=

USA.gov is the U.S. government's official web portal to all federal, state and local government web resources and services.